sensor_id;sensor_type;location;lat;lon;timestamp;temperature;humidity
12901;DHT22;6518;50.930;5.344;2023-03-16T00:01:04;6.40;77.90
12901;DHT22;6518;50.930;5.344;2023-03-16T00:03:32;6.40;77.80
12901;DHT22;6518;50.930;5.344;2023-03-16T00:06:00;6.40;77.80
12901;DHT22;6518;50.930;5.344;2023-03-16T00:08:27;6.40;77.90
12901;DHT22;6518;50.930;5.344;2023-03-16T00:10:53;6.40;78.00
12901;DHT22;6518;50.930;5.344;2023-03-16T00:13:22;6.40;77.90
12901;DHT22;6518;50.930;5.344;2023-03-16T00:15:50;6.40;78.00
12901;DHT22;6518;50.930;5.344;2023-03-16T00:18:18;6.40;78.10
12901;DHT22;6518;50.930;5.344;2023-03-16T00:20:49;6.40;78.00
12901;DHT22;6518;50.930;5.344;2023-03-16T00:23:18;6.40;78.10
12901;DHT22;6518;50.930;5.344;2023-03-16T00:25:52;6.40;78.20
12901;DHT22;6518;50.930;5.344;2023-03-16T00:28:19;6.50;78.20
12901;DHT22;6518;50.930;5.344;2023-03-16T00:30:46;6.40;78.20
12901;DHT22;6518;50.930;5.344;2023-03-16T00:33:13;6.40;78.40
12901;DHT22;6518;50.930;5.344;2023-03-16T00:35:44;6.50;78.40
12901;DHT22;6518;50.930;5.344;2023-03-16T00:38:14;6.50;78.30
12901;DHT22;6518;50.930;5.344;2023-03-16T00:40:42;6.50;78.30
12901;DHT22;6518;50.930;5.344;2023-03-16T00:43:09;6.50;78.30
12901;DHT22;6518;50.930;5.344;2023-03-16T00:45:36;6.50;78.50
12901;DHT22;6518;50.930;5.344;2023-03-16T00:48:03;6.50;78.50
12901;DHT22;6518;50.930;5.344;2023-03-16T00:50:30;6.50;78.50
12901;DHT22;6518;50.930;5.344;2023-03-16T00:52:57;6.50;78.50
12901;DHT22;6518;50.930;5.344;2023-03-16T00:55:24;6.50;78.60
12901;DHT22;6518;50.930;5.344;2023-03-16T00:57:52;6.50;78.60
12901;DHT22;6518;50.930;5.344;2023-03-16T01:00:20;6.50;78.60
12901;DHT22;6518;50.930;5.344;2023-03-16T01:02:49;6.50;78.70
12901;DHT22;6518;50.930;5.344;2023-03-16T01:05:16;6.50;78.70
12901;DHT22;6518;50.930;5.344;2023-03-16T01:07:43;6.50;78.60
12901;DHT22;6518;50.930;5.344;2023-03-16T01:10:11;6.50;78.60
12901;DHT22;6518;50.930;5.344;2023-03-16T01:12:38;6.50;78.60
12901;DHT22;6518;50.930;5.344;2023-03-16T01:15:08;6.50;78.60
12901;DHT22;6518;50.930;5.344;2023-03-16T01:17:35;6.50;78.50
12901;DHT22;6518;50.930;5.344;2023-03-16T01:20:02;6.50;78.60
12901;DHT22;6518;50.930;5.344;2023-03-16T01:22:32;6.50;78.50
12901;DHT22;6518;50.930;5.344;2023-03-16T01:24:59;6.50;78.60
12901;DHT22;6518;50.930;5.344;2023-03-16T01:27:26;6.50;78.40
12901;DHT22;6518;50.930;5.344;2023-03-16T01:29:52;6.50;78.40
12901;DHT22;6518;50.930;5.344;2023-03-16T01:32:20;6.50;78.40
12901;DHT22;6518;50.930;5.344;2023-03-16T01:34:47;6.50;78.30
12901;DHT22;6518;50.930;5.344;2023-03-16T01:37:14;6.50;78.30
12901;DHT22;6518;50.930;5.344;2023-03-16T01:39:41;6.50;78.20
12901;DHT22;6518;50.930;5.344;2023-03-16T01:42:08;6.50;78.20
12901;DHT22;6518;50.930;5.344;2023-03-16T01:44:57;6.50;78.10
12901;DHT22;6518;50.930;5.344;2023-03-16T01:47:27;6.50;78.10
12901;DHT22;6518;50.930;5.344;2023-03-16T01:49:55;6.50;78.20
12901;DHT22;6518;50.930;5.344;2023-03-16T01:52:24;6.50;78.20
12901;DHT22;6518;50.930;5.344;2023-03-16T01:54:56;6.50;78.20
12901;DHT22;6518;50.930;5.344;2023-03-16T01:57:26;6.50;78.20
12901;DHT22;6518;50.930;5.344;2023-03-16T01:59:58;6.50;78.20
12901;DHT22;6518;50.930;5.344;2023-03-16T02:02:48;6.50;78.20
12901;DHT22;6518;50.930;5.344;2023-03-16T02:05:18;6.50;78.10
12901;DHT22;6518;50.930;5.344;2023-03-16T02:07:49;6.60;78.20
12901;DHT22;6518;50.930;5.344;2023-03-16T02:10:18;6.50;78.10
12901;DHT22;6518;50.930;5.344;2023-03-16T02:12:46;6.50;78.20
12901;DHT22;6518;50.930;5.344;2023-03-16T02:15:13;6.50;78.20
12901;DHT22;6518;50.930;5.344;2023-03-16T02:17:41;6.50;78.20
12901;DHT22;6518;50.930;5.344;2023-03-16T02:20:18;6.50;78.30
12901;DHT22;6518;50.930;5.344;2023-03-16T02:22:51;6.50;78.30
12901;DHT22;6518;50.930;5.344;2023-03-16T02:25:21;6.50;78.30
12901;DHT22;6518;50.930;5.344;2023-03-16T02:27:54;6.50;78.30
12901;DHT22;6518;50.930;5.344;2023-03-16T02:30:25;6.50;78.40
12901;DHT22;6518;50.930;5.344;2023-03-16T02:32:53;6.50;78.40
12901;DHT22;6518;50.930;5.344;2023-03-16T02:35:20;6.60;78.40
12901;DHT22;6518;50.930;5.344;2023-03-16T02:37:47;6.60;78.40
12901;DHT22;6518;50.930;5.344;2023-03-16T02:40:20;6.60;78.40
12901;DHT22;6518;50.930;5.344;2023-03-16T02:42:51;6.60;78.60
12901;DHT22;6518;50.930;5.344;2023-03-16T02:45:20;6.60;78.50
12901;DHT22;6518;50.930;5.344;2023-03-16T02:47:48;6.60;78.60
12901;DHT22;6518;50.930;5.344;2023-03-16T02:50:18;6.60;78.60
12901;DHT22;6518;50.930;5.344;2023-03-16T02:52:45;6.60;78.60
12901;DHT22;6518;50.930;5.344;2023-03-16T02:55:13;6.60;78.60
12901;DHT22;6518;50.930;5.344;2023-03-16T02:57:40;6.60;78.60
12901;DHT22;6518;50.930;5.344;2023-03-16T03:00:08;6.60;78.70
12901;DHT22;6518;50.930;5.344;2023-03-16T03:02:41;6.60;78.70
12901;DHT22;6518;50.930;5.344;2023-03-16T03:05:10;6.60;78.70
12901;DHT22;6518;50.930;5.344;2023-03-16T03:07:37;6.60;78.80
12901;DHT22;6518;50.930;5.344;2023-03-16T03:10:04;6.70;78.90
12901;DHT22;6518;50.930;5.344;2023-03-16T03:12:31;6.70;79.00
12901;DHT22;6518;50.930;5.344;2023-03-16T03:14:58;6.70;79.00
12901;DHT22;6518;50.930;5.344;2023-03-16T03:17:25;6.70;79.10
12901;DHT22;6518;50.930;5.344;2023-03-16T03:19:55;6.70;79.20
12901;DHT22;6518;50.930;5.344;2023-03-16T03:22:23;6.70;79.30
12901;DHT22;6518;50.930;5.344;2023-03-16T03:24:51;6.70;79.20
12901;DHT22;6518;50.930;5.344;2023-03-16T03:27:18;6.70;79.20
12901;DHT22;6518;50.930;5.344;2023-03-16T03:29:47;6.70;79.40
12901;DHT22;6518;50.930;5.344;2023-03-16T03:32:14;6.70;79.40
12901;DHT22;6518;50.930;5.344;2023-03-16T03:34:40;6.70;79.60
12901;DHT22;6518;50.930;5.344;2023-03-16T03:37:08;6.70;79.80
12901;DHT22;6518;50.930;5.344;2023-03-16T03:39:36;6.70;79.80
12901;DHT22;6518;50.930;5.344;2023-03-16T03:42:05;6.70;80.40
12901;DHT22;6518;50.930;5.344;2023-03-16T03:44:32;6.70;80.10
12901;DHT22;6518;50.930;5.344;2023-03-16T03:47:00;6.70;80.60
12901;DHT22;6518;50.930;5.344;2023-03-16T03:49:27;6.70;80.50
12901;DHT22;6518;50.930;5.344;2023-03-16T03:51:54;6.70;80.40
12901;DHT22;6518;50.930;5.344;2023-03-16T03:54:23;6.80;80.80
12901;DHT22;6518;50.930;5.344;2023-03-16T03:56:52;6.70;80.70
12901;DHT22;6518;50.930;5.344;2023-03-16T03:59:19;6.70;80.80
12901;DHT22;6518;50.930;5.344;2023-03-16T04:01:47;6.70;81.00
12901;DHT22;6518;50.930;5.344;2023-03-16T04:04:14;6.70;81.10
12901;DHT22;6518;50.930;5.344;2023-03-16T04:06:41;6.70;81.20
12901;DHT22;6518;50.930;5.344;2023-03-16T04:09:08;6.70;81.20
12901;DHT22;6518;50.930;5.344;2023-03-16T04:11:35;6.70;81.40
12901;DHT22;6518;50.930;5.344;2023-03-16T04:14:04;6.70;81.30
12901;DHT22;6518;50.930;5.344;2023-03-16T04:16:31;6.70;81.60
12901;DHT22;6518;50.930;5.344;2023-03-16T04:18:58;6.70;81.50
12901;DHT22;6518;50.930;5.344;2023-03-16T04:21:26;6.70;81.80
12901;DHT22;6518;50.930;5.344;2023-03-16T04:23:53;6.70;81.70
12901;DHT22;6518;50.930;5.344;2023-03-16T04:26:20;6.70;81.90
12901;DHT22;6518;50.930;5.344;2023-03-16T04:28:48;6.70;82.00
12901;DHT22;6518;50.930;5.344;2023-03-16T04:31:16;6.70;82.00
12901;DHT22;6518;50.930;5.344;2023-03-16T04:33:43;6.70;82.10
12901;DHT22;6518;50.930;5.344;2023-03-16T04:36:10;6.70;82.20
12901;DHT22;6518;50.930;5.344;2023-03-16T04:38:37;6.70;82.20
12901;DHT22;6518;50.930;5.344;2023-03-16T04:41:04;6.70;82.40
12901;DHT22;6518;50.930;5.344;2023-03-16T04:43:32;6.70;82.30
12901;DHT22;6518;50.930;5.344;2023-03-16T04:45:59;6.70;82.40
12901;DHT22;6518;50.930;5.344;2023-03-16T04:48:28;6.70;82.30
12901;DHT22;6518;50.930;5.344;2023-03-16T04:50:56;6.70;82.30
12901;DHT22;6518;50.930;5.344;2023-03-16T04:53:23;6.70;82.20
12901;DHT22;6518;50.930;5.344;2023-03-16T04:55:50;6.60;82.30
12901;DHT22;6518;50.930;5.344;2023-03-16T04:58:17;6.60;82.20
12901;DHT22;6518;50.930;5.344;2023-03-16T05:00:43;6.60;82.20
12901;DHT22;6518;50.930;5.344;2023-03-16T05:03:10;6.60;82.40
12901;DHT22;6518;50.930;5.344;2023-03-16T05:05:40;6.60;82.20
12901;DHT22;6518;50.930;5.344;2023-03-16T05:08:07;6.60;82.20
12901;DHT22;6518;50.930;5.344;2023-03-16T05:10:35;6.60;82.20
12901;DHT22;6518;50.930;5.344;2023-03-16T05:13:02;6.60;82.20
12901;DHT22;6518;50.930;5.344;2023-03-16T05:15:29;6.60;82.30
12901;DHT22;6518;50.930;5.344;2023-03-16T05:17:56;6.60;82.20
12901;DHT22;6518;50.930;5.344;2023-03-16T05:20:23;6.70;82.40
12901;DHT22;6518;50.930;5.344;2023-03-16T05:22:51;6.60;82.40
12901;DHT22;6518;50.930;5.344;2023-03-16T05:25:19;6.70;82.40
12901;DHT22;6518;50.930;5.344;2023-03-16T05:27:48;6.60;83.50
12901;DHT22;6518;50.930;5.344;2023-03-16T05:30:17;6.60;82.60
12901;DHT22;6518;50.930;5.344;2023-03-16T05:32:44;6.70;83.00
12901;DHT22;6518;50.930;5.344;2023-03-16T05:35:11;6.70;83.00
12901;DHT22;6518;50.930;5.344;2023-03-16T05:37:39;6.70;83.10
12901;DHT22;6518;50.930;5.344;2023-03-16T05:40:10;6.70;83.10
12901;DHT22;6518;50.930;5.344;2023-03-16T05:42:42;6.70;83.10
12901;DHT22;6518;50.930;5.344;2023-03-16T05:45:09;6.70;83.20
12901;DHT22;6518;50.930;5.344;2023-03-16T05:47:36;6.70;83.10
12901;DHT22;6518;50.930;5.344;2023-03-16T05:50:04;6.70;83.30
12901;DHT22;6518;50.930;5.344;2023-03-16T05:52:31;6.70;83.20
12901;DHT22;6518;50.930;5.344;2023-03-16T05:54:58;6.70;83.40
12901;DHT22;6518;50.930;5.344;2023-03-16T05:57:26;6.70;83.40
12901;DHT22;6518;50.930;5.344;2023-03-16T05:59:53;6.70;83.50
12901;DHT22;6518;50.930;5.344;2023-03-16T06:02:20;6.70;83.60
12901;DHT22;6518;50.930;5.344;2023-03-16T06:04:47;6.70;83.70
12901;DHT22;6518;50.930;5.344;2023-03-16T06:07:13;6.70;83.70
12901;DHT22;6518;50.930;5.344;2023-03-16T06:09:40;6.70;83.90
12901;DHT22;6518;50.930;5.344;2023-03-16T06:12:07;6.70;83.90
12901;DHT22;6518;50.930;5.344;2023-03-16T06:14:36;6.80;84.00
12901;DHT22;6518;50.930;5.344;2023-03-16T06:17:02;6.80;84.00
12901;DHT22;6518;50.930;5.344;2023-03-16T06:19:29;6.80;84.00
12901;DHT22;6518;50.930;5.344;2023-03-16T06:21:56;6.80;84.00
12901;DHT22;6518;50.930;5.344;2023-03-16T06:24:23;6.80;84.10
12901;DHT22;6518;50.930;5.344;2023-03-16T06:26:49;6.80;84.00
12901;DHT22;6518;50.930;5.344;2023-03-16T06:29:16;6.80;84.00
12901;DHT22;6518;50.930;5.344;2023-03-16T06:31:44;6.80;84.20
12901;DHT22;6518;50.930;5.344;2023-03-16T06:34:11;6.80;84.30
12901;DHT22;6518;50.930;5.344;2023-03-16T06:36:38;6.80;84.50
12901;DHT22;6518;50.930;5.344;2023-03-16T06:39:05;6.80;84.50
12901;DHT22;6518;50.930;5.344;2023-03-16T06:41:32;6.90;84.50
12901;DHT22;6518;50.930;5.344;2023-03-16T06:44:00;6.90;84.70
12901;DHT22;6518;50.930;5.344;2023-03-16T06:46:27;6.90;84.70
12901;DHT22;6518;50.930;5.344;2023-03-16T06:48:55;6.90;84.80
12901;DHT22;6518;50.930;5.344;2023-03-16T06:51:22;6.90;84.70
12901;DHT22;6518;50.930;5.344;2023-03-16T06:53:49;6.90;84.70
12901;DHT22;6518;50.930;5.344;2023-03-16T06:56:16;7.00;84.90
12901;DHT22;6518;50.930;5.344;2023-03-16T06:58:42;7.00;85.00
12901;DHT22;6518;50.930;5.344;2023-03-16T07:01:09;7.00;84.80
12901;DHT22;6518;50.930;5.344;2023-03-16T07:03:37;7.00;84.80
12901;DHT22;6518;50.930;5.344;2023-03-16T07:06:05;7.00;84.90
12901;DHT22;6518;50.930;5.344;2023-03-16T07:08:33;7.00;84.80
12901;DHT22;6518;50.930;5.344;2023-03-16T07:11:00;7.10;84.80
12901;DHT22;6518;50.930;5.344;2023-03-16T07:13:26;7.10;84.80
12901;DHT22;6518;50.930;5.344;2023-03-16T07:15:53;7.10;84.60
12901;DHT22;6518;50.930;5.344;2023-03-16T07:18:20;7.10;84.50
12901;DHT22;6518;50.930;5.344;2023-03-16T07:20:47;7.10;84.50
12901;DHT22;6518;50.930;5.344;2023-03-16T07:23:15;7.20;84.50
12901;DHT22;6518;50.930;5.344;2023-03-16T07:25:42;7.20;84.20
12901;DHT22;6518;50.930;5.344;2023-03-16T07:28:09;7.20;84.10
12901;DHT22;6518;50.930;5.344;2023-03-16T07:30:36;7.30;84.00
12901;DHT22;6518;50.930;5.344;2023-03-16T07:33:03;7.30;83.90
12901;DHT22;6518;50.930;5.344;2023-03-16T07:35:30;7.30;83.90
12901;DHT22;6518;50.930;5.344;2023-03-16T07:37:57;7.40;83.80
12901;DHT22;6518;50.930;5.344;2023-03-16T07:40:25;7.40;83.30
12901;DHT22;6518;50.930;5.344;2023-03-16T07:42:52;7.40;82.90
12901;DHT22;6518;50.930;5.344;2023-03-16T07:45:19;7.40;82.80
12901;DHT22;6518;50.930;5.344;2023-03-16T07:47:47;7.40;82.60
12901;DHT22;6518;50.930;5.344;2023-03-16T07:50:14;7.50;83.50
12901;DHT22;6518;50.930;5.344;2023-03-16T07:52:43;7.50;82.70
12901;DHT22;6518;50.930;5.344;2023-03-16T07:55:11;7.50;82.30
12901;DHT22;6518;50.930;5.344;2023-03-16T07:57:39;7.50;82.30
12901;DHT22;6518;50.930;5.344;2023-03-16T08:00:13;7.60;82.10
12901;DHT22;6518;50.930;5.344;2023-03-16T08:02:40;7.60;81.80
12901;DHT22;6518;50.930;5.344;2023-03-16T08:05:07;7.60;81.50
12901;DHT22;6518;50.930;5.344;2023-03-16T08:07:35;7.70;81.70
12901;DHT22;6518;50.930;5.344;2023-03-16T08:10:03;7.70;81.50
12901;DHT22;6518;50.930;5.344;2023-03-16T08:12:31;7.80;81.50
12901;DHT22;6518;50.930;5.344;2023-03-16T08:14:59;7.80;81.20
12901;DHT22;6518;50.930;5.344;2023-03-16T08:17:26;7.80;81.20
12901;DHT22;6518;50.930;5.344;2023-03-16T08:19:53;7.90;81.00
12901;DHT22;6518;50.930;5.344;2023-03-16T08:22:19;7.90;81.00
12901;DHT22;6518;50.930;5.344;2023-03-16T08:24:46;8.00;80.80
12901;DHT22;6518;50.930;5.344;2023-03-16T08:27:13;8.00;80.60
12901;DHT22;6518;50.930;5.344;2023-03-16T08:29:42;8.10;80.60
12901;DHT22;6518;50.930;5.344;2023-03-16T08:32:10;8.10;80.30
12901;DHT22;6518;50.930;5.344;2023-03-16T08:34:38;8.20;79.90
12901;DHT22;6518;50.930;5.344;2023-03-16T08:37:05;8.30;78.80
12901;DHT22;6518;50.930;5.344;2023-03-16T08:39:32;8.40;79.20
12901;DHT22;6518;50.930;5.344;2023-03-16T08:42:00;8.60;79.00
12901;DHT22;6518;50.930;5.344;2023-03-16T08:44:27;8.70;78.70
12901;DHT22;6518;50.930;5.344;2023-03-16T08:46:53;8.80;77.80
12901;DHT22;6518;50.930;5.344;2023-03-16T08:49:22;9.00;77.60
12901;DHT22;6518;50.930;5.344;2023-03-16T08:51:48;9.20;76.90
12901;DHT22;6518;50.930;5.344;2023-03-16T08:54:15;9.30;76.90
12901;DHT22;6518;50.930;5.344;2023-03-16T08:56:42;9.40;75.40
12901;DHT22;6518;50.930;5.344;2023-03-16T08:59:09;9.50;75.40
12901;DHT22;6518;50.930;5.344;2023-03-16T09:01:36;9.50;75.60
12901;DHT22;6518;50.930;5.344;2023-03-16T09:04:03;9.50;73.80
12901;DHT22;6518;50.930;5.344;2023-03-16T09:06:31;9.60;73.80
12901;DHT22;6518;50.930;5.344;2023-03-16T09:08:58;9.60;73.50
12901;DHT22;6518;50.930;5.344;2023-03-16T09:11:25;9.60;73.20
12901;DHT22;6518;50.930;5.344;2023-03-16T09:13:55;9.70;73.10
12901;DHT22;6518;50.930;5.344;2023-03-16T09:16:22;9.70;72.60
12901;DHT22;6518;50.930;5.344;2023-03-16T09:18:50;9.70;72.40
12901;DHT22;6518;50.930;5.344;2023-03-16T09:21:17;9.70;72.60
12901;DHT22;6518;50.930;5.344;2023-03-16T09:23:45;9.70;72.20
12901;DHT22;6518;50.930;5.344;2023-03-16T09:26:13;9.80;71.80
12901;DHT22;6518;50.930;5.344;2023-03-16T09:28:41;9.90;71.60
12901;DHT22;6518;50.930;5.344;2023-03-16T09:31:08;10.00;71.40
12901;DHT22;6518;50.930;5.344;2023-03-16T09:33:36;10.10;71.80
12901;DHT22;6518;50.930;5.344;2023-03-16T09:36:03;10.20;71.70
12901;DHT22;6518;50.930;5.344;2023-03-16T09:38:30;10.20;71.10
12901;DHT22;6518;50.930;5.344;2023-03-16T09:41:01;10.20;70.90
12901;DHT22;6518;50.930;5.344;2023-03-16T09:43:41;10.30;70.70
12901;DHT22;6518;50.930;5.344;2023-03-16T09:46:23;10.40;70.00
12901;DHT22;6518;50.930;5.344;2023-03-16T09:48:50;10.50;69.30
12901;DHT22;6518;50.930;5.344;2023-03-16T09:51:21;10.50;69.00
12901;DHT22;6518;50.930;5.344;2023-03-16T09:53:51;10.60;68.70
12901;DHT22;6518;50.930;5.344;2023-03-16T09:56:27;10.70;68.80
12901;DHT22;6518;50.930;5.344;2023-03-16T09:58:57;10.80;68.80
12901;DHT22;6518;50.930;5.344;2023-03-16T10:01:33;10.80;68.30
12901;DHT22;6518;50.930;5.344;2023-03-16T10:04:14;10.90;68.10
12901;DHT22;6518;50.930;5.344;2023-03-16T10:06:47;11.00;68.10
12901;DHT22;6518;50.930;5.344;2023-03-16T10:09:24;11.00;68.00
12901;DHT22;6518;50.930;5.344;2023-03-16T10:11:56;11.10;67.30
12901;DHT22;6518;50.930;5.344;2023-03-16T10:14:27;11.20;67.30
12901;DHT22;6518;50.930;5.344;2023-03-16T10:17:00;11.20;66.90
12901;DHT22;6518;50.930;5.344;2023-03-16T10:19:33;11.30;66.80
12901;DHT22;6518;50.930;5.344;2023-03-16T10:22:10;11.40;66.60
12901;DHT22;6518;50.930;5.344;2023-03-16T10:24:42;11.40;66.10
12901;DHT22;6518;50.930;5.344;2023-03-16T10:27:17;11.40;66.10
12901;DHT22;6518;50.930;5.344;2023-03-16T10:29:46;11.40;65.30
12901;DHT22;6518;50.930;5.344;2023-03-16T10:32:15;11.50;65.20
12901;DHT22;6518;50.930;5.344;2023-03-16T10:34:47;11.40;65.50
12901;DHT22;6518;50.930;5.344;2023-03-16T10:37:19;11.50;65.80
12901;DHT22;6518;50.930;5.344;2023-03-16T10:39:47;11.40;65.70
12901;DHT22;6518;50.930;5.344;2023-03-16T10:42:18;11.50;65.10
12901;DHT22;6518;50.930;5.344;2023-03-16T10:44:46;11.50;65.00
12901;DHT22;6518;50.930;5.344;2023-03-16T10:47:17;11.60;65.00
12901;DHT22;6518;50.930;5.344;2023-03-16T10:49:44;11.60;64.80
12901;DHT22;6518;50.930;5.344;2023-03-16T10:52:18;11.60;64.30
12901;DHT22;6518;50.930;5.344;2023-03-16T10:54:50;11.70;64.40
12901;DHT22;6518;50.930;5.344;2023-03-16T10:57:23;11.70;64.10
12901;DHT22;6518;50.930;5.344;2023-03-16T10:59:51;11.70;63.90
12901;DHT22;6518;50.930;5.344;2023-03-16T11:02:20;11.70;63.50
12901;DHT22;6518;50.930;5.344;2023-03-16T11:04:48;11.80;63.50
12901;DHT22;6518;50.930;5.344;2023-03-16T11:07:15;11.90;63.10
12901;DHT22;6518;50.930;5.344;2023-03-16T11:09:44;11.90;63.00
12901;DHT22;6518;50.930;5.344;2023-03-16T11:12:13;12.00;63.00
12901;DHT22;6518;50.930;5.344;2023-03-16T11:14:46;12.10;62.30
12901;DHT22;6518;50.930;5.344;2023-03-16T11:17:17;12.10;61.90
12901;DHT22;6518;50.930;5.344;2023-03-16T11:19:50;12.20;61.90
12901;DHT22;6518;50.930;5.344;2023-03-16T11:22:20;12.30;62.40
12901;DHT22;6518;50.930;5.344;2023-03-16T11:24:49;12.40;60.80
12901;DHT22;6518;50.930;5.344;2023-03-16T11:27:23;12.60;60.90
12901;DHT22;6518;50.930;5.344;2023-03-16T11:29:58;12.60;61.10
12901;DHT22;6518;50.930;5.344;2023-03-16T11:32:31;12.70;61.00
12901;DHT22;6518;50.930;5.344;2023-03-16T11:34:59;12.80;59.50
12901;DHT22;6518;50.930;5.344;2023-03-16T11:37:39;12.90;59.70
12901;DHT22;6518;50.930;5.344;2023-03-16T11:40:16;12.90;60.00
12901;DHT22;6518;50.930;5.344;2023-03-16T11:42:53;12.90;59.20
12901;DHT22;6518;50.930;5.344;2023-03-16T11:45:30;13.00;59.60
12901;DHT22;6518;50.930;5.344;2023-03-16T11:48:16;13.00;59.90
12901;DHT22;6518;50.930;5.344;2023-03-16T11:50:56;12.90;59.50
12901;DHT22;6518;50.930;5.344;2023-03-16T11:53:41;13.10;59.40
12901;DHT22;6518;50.930;5.344;2023-03-16T11:56:17;13.10;59.40
12901;DHT22;6518;50.930;5.344;2023-03-16T11:59:12;13.20;59.60
12901;DHT22;6518;50.930;5.344;2023-03-16T12:01:53;13.20;59.50
12901;DHT22;6518;50.930;5.344;2023-03-16T12:04:30;13.30;59.30
12901;DHT22;6518;50.930;5.344;2023-03-16T12:07:12;13.30;59.00
12901;DHT22;6518;50.930;5.344;2023-03-16T12:10:00;13.30;58.80
12901;DHT22;6518;50.930;5.344;2023-03-16T12:12:42;13.30;58.70
12901;DHT22;6518;50.930;5.344;2023-03-16T12:15:22;13.30;58.90
12901;DHT22;6518;50.930;5.344;2023-03-16T12:17:56;13.20;58.90
12901;DHT22;6518;50.930;5.344;2023-03-16T12:20:27;13.20;58.60
12901;DHT22;6518;50.930;5.344;2023-03-16T12:22:59;13.20;58.40
12901;DHT22;6518;50.930;5.344;2023-03-16T12:25:31;13.20;58.40
12901;DHT22;6518;50.930;5.344;2023-03-16T12:28:01;13.20;58.30
12901;DHT22;6518;50.930;5.344;2023-03-16T12:30:37;13.20;57.70
12901;DHT22;6518;50.930;5.344;2023-03-16T12:33:15;13.20;57.60
12901;DHT22;6518;50.930;5.344;2023-03-16T12:35:49;13.20;57.50
12901;DHT22;6518;50.930;5.344;2023-03-16T12:38:35;13.30;57.40
12901;DHT22;6518;50.930;5.344;2023-03-16T12:41:13;13.30;56.50
12901;DHT22;6518;50.930;5.344;2023-03-16T12:43:50;13.30;57.20
12901;DHT22;6518;50.930;5.344;2023-03-16T12:46:23;13.30;56.60
12901;DHT22;6518;50.930;5.344;2023-03-16T12:48:58;13.30;56.50
12901;DHT22;6518;50.930;5.344;2023-03-16T12:51:36;13.30;56.50
12901;DHT22;6518;50.930;5.344;2023-03-16T12:54:03;13.30;56.90
12901;DHT22;6518;50.930;5.344;2023-03-16T12:56:34;13.30;56.00
12901;DHT22;6518;50.930;5.344;2023-03-16T12:59:03;13.40;56.30
12901;DHT22;6518;50.930;5.344;2023-03-16T13:01:37;13.40;56.40
12901;DHT22;6518;50.930;5.344;2023-03-16T13:04:10;13.40;56.40
12901;DHT22;6518;50.930;5.344;2023-03-16T13:06:42;13.40;56.40
12901;DHT22;6518;50.930;5.344;2023-03-16T13:09:11;13.40;56.70
12901;DHT22;6518;50.930;5.344;2023-03-16T13:11:44;13.40;56.80
12901;DHT22;6518;50.930;5.344;2023-03-16T13:14:16;13.40;56.80
12901;DHT22;6518;50.930;5.344;2023-03-16T13:17:03;13.50;57.20
12901;DHT22;6518;50.930;5.344;2023-03-16T13:19:32;13.50;57.20
12901;DHT22;6518;50.930;5.344;2023-03-16T13:22:16;13.50;57.20
12901;DHT22;6518;50.930;5.344;2023-03-16T13:24:51;13.50;56.80
12901;DHT22;6518;50.930;5.344;2023-03-16T13:27:25;13.60;57.10
12901;DHT22;6518;50.930;5.344;2023-03-16T13:29:58;13.60;57.30
12901;DHT22;6518;50.930;5.344;2023-03-16T13:32:29;13.60;57.10
12901;DHT22;6518;50.930;5.344;2023-03-16T13:34:59;13.70;56.50
12901;DHT22;6518;50.930;5.344;2023-03-16T13:37:28;13.70;56.90
12901;DHT22;6518;50.930;5.344;2023-03-16T13:39:56;13.70;57.10
12901;DHT22;6518;50.930;5.344;2023-03-16T13:42:25;13.70;56.90
12901;DHT22;6518;50.930;5.344;2023-03-16T13:44:53;13.70;57.10
12901;DHT22;6518;50.930;5.344;2023-03-16T13:47:21;13.70;56.90
12901;DHT22;6518;50.930;5.344;2023-03-16T13:49:53;13.70;57.10
12901;DHT22;6518;50.930;5.344;2023-03-16T13:52:25;13.70;57.30
12901;DHT22;6518;50.930;5.344;2023-03-16T13:54:53;13.70;57.00
12901;DHT22;6518;50.930;5.344;2023-03-16T13:57:22;13.70;57.10
12901;DHT22;6518;50.930;5.344;2023-03-16T13:59:50;13.80;56.80
12901;DHT22;6518;50.930;5.344;2023-03-16T14:02:23;13.80;56.60
12901;DHT22;6518;50.930;5.344;2023-03-16T14:04:50;13.80;56.30
12901;DHT22;6518;50.930;5.344;2023-03-16T14:07:19;13.80;56.50
12901;DHT22;6518;50.930;5.344;2023-03-16T14:09:49;13.90;56.20
12901;DHT22;6518;50.930;5.344;2023-03-16T14:12:18;13.90;56.40
12901;DHT22;6518;50.930;5.344;2023-03-16T14:14:46;13.90;56.10
12901;DHT22;6518;50.930;5.344;2023-03-16T14:17:17;14.00;56.20
12901;DHT22;6518;50.930;5.344;2023-03-16T14:19:46;14.00;56.00
12901;DHT22;6518;50.930;5.344;2023-03-16T14:22:16;14.00;55.50
12901;DHT22;6518;50.930;5.344;2023-03-16T14:24:45;14.10;55.30
12901;DHT22;6518;50.930;5.344;2023-03-16T14:27:24;14.10;55.40
12901;DHT22;6518;50.930;5.344;2023-03-16T14:29:56;14.10;55.10
12901;DHT22;6518;50.930;5.344;2023-03-16T14:32:27;14.20;55.30
12901;DHT22;6518;50.930;5.344;2023-03-16T14:35:12;14.20;54.80
12901;DHT22;6518;50.930;5.344;2023-03-16T14:37:39;14.30;54.60
12901;DHT22;6518;50.930;5.344;2023-03-16T14:40:20;14.30;54.30
12901;DHT22;6518;50.930;5.344;2023-03-16T14:42:48;14.30;54.30
12901;DHT22;6518;50.930;5.344;2023-03-16T14:45:16;14.40;54.20
12901;DHT22;6518;50.930;5.344;2023-03-16T14:47:46;14.40;53.80
12901;DHT22;6518;50.930;5.344;2023-03-16T14:50:16;14.50;53.80
12901;DHT22;6518;50.930;5.344;2023-03-16T14:52:48;14.50;53.70
12901;DHT22;6518;50.930;5.344;2023-03-16T14:55:17;14.50;53.60
12901;DHT22;6518;50.930;5.344;2023-03-16T14:57:45;14.50;53.70
12901;DHT22;6518;50.930;5.344;2023-03-16T15:00:17;14.50;53.30
12901;DHT22;6518;50.930;5.344;2023-03-16T15:02:51;14.50;53.70
12901;DHT22;6518;50.930;5.344;2023-03-16T15:05:23;14.50;53.50
12901;DHT22;6518;50.930;5.344;2023-03-16T15:07:54;14.50;53.70
12901;DHT22;6518;50.930;5.344;2023-03-16T15:10:24;14.50;53.80
12901;DHT22;6518;50.930;5.344;2023-03-16T15:12:52;14.50;53.80
12901;DHT22;6518;50.930;5.344;2023-03-16T15:15:22;14.50;53.90
12901;DHT22;6518;50.930;5.344;2023-03-16T15:17:52;14.60;53.70
12901;DHT22;6518;50.930;5.344;2023-03-16T15:20:20;14.60;53.70
12901;DHT22;6518;50.930;5.344;2023-03-16T15:22:49;14.60;53.80
12901;DHT22;6518;50.930;5.344;2023-03-16T15:25:33;14.60;53.90
12901;DHT22;6518;50.930;5.344;2023-03-16T15:28:10;14.60;53.80
12901;DHT22;6518;50.930;5.344;2023-03-16T15:30:39;14.60;53.80
12901;DHT22;6518;50.930;5.344;2023-03-16T15:33:07;14.60;53.90
12901;DHT22;6518;50.930;5.344;2023-03-16T15:35:33;14.60;53.90
12901;DHT22;6518;50.930;5.344;2023-03-16T15:38:04;14.60;54.10
12901;DHT22;6518;50.930;5.344;2023-03-16T15:40:31;14.60;53.90
12901;DHT22;6518;50.930;5.344;2023-03-16T15:42:59;14.60;53.90
12901;DHT22;6518;50.930;5.344;2023-03-16T15:45:26;14.70;53.80
12901;DHT22;6518;50.930;5.344;2023-03-16T15:47:55;14.70;53.60
12901;DHT22;6518;50.930;5.344;2023-03-16T15:50:22;14.70;54.00
12901;DHT22;6518;50.930;5.344;2023-03-16T15:52:52;14.70;53.90
12901;DHT22;6518;50.930;5.344;2023-03-16T15:55:21;14.80;54.10
12901;DHT22;6518;50.930;5.344;2023-03-16T15:57:53;14.50;54.00
12901;DHT22;6518;50.930;5.344;2023-03-16T16:00:26;14.80;53.80
12901;DHT22;6518;50.930;5.344;2023-03-16T16:02:56;14.80;53.90
12901;DHT22;6518;50.930;5.344;2023-03-16T16:05:24;14.80;54.00
12901;DHT22;6518;50.930;5.344;2023-03-16T16:07:52;14.70;54.10
12901;DHT22;6518;50.930;5.344;2023-03-16T16:10:19;14.70;54.40